createdAt,value
2022-08-25T00:02:14.009Z,23.19
2022-08-25T00:04:42.678Z,23.65
2022-08-25T00:07:11.182Z,24.01
2022-08-25T00:09:38.309Z,24.02
2022-08-25T00:12:06.775Z,24.15
2022-08-25T00:14:36.923Z,23.41
2022-08-25T00:17:05.473Z,23.06
2022-08-25T00:19:36.848Z,23.96
2022-08-25T00:22:06.950Z,22.95
2022-08-25T00:24:34.208Z,22.64
2022-08-25T00:27:02.053Z,23.04
2022-08-25T00:29:31.326Z,22.94
2022-08-25T00:31:58.511Z,23.55
2022-08-25T00:34:34.291Z,23.62
2022-08-25T00:37:03.046Z,23.17
2022-08-25T00:39:30.621Z,23.30
2022-08-25T00:41:57.877Z,23.08
2022-08-25T00:44:28.699Z,23.33
2022-08-25T00:46:58.190Z,23.12
2022-08-25T00:49:39.120Z,23.56
2022-08-25T00:52:11.601Z,22.59
2022-08-25T00:54:44.814Z,23.02
2022-08-25T00:57:15.971Z,22.86
2022-08-25T00:59:44.406Z,22.11
2022-08-25T01:02:14.585Z,22.99
2022-08-25T01:04:48.599Z,22.43
2022-08-25T01:07:18.758Z,22.87
2022-08-25T01:09:47.740Z,22.84
2022-08-25T01:12:15.328Z,20.78
2022-08-25T01:14:46.003Z,21.14
2022-08-25T01:17:14.031Z,20.98
2022-08-25T01:19:40.921Z,21.73
2022-08-25T01:22:08.614Z,21.68
2022-08-25T01:24:47.513Z,22.32
2022-08-25T01:27:14.564Z,21.51
2022-08-25T01:29:41.824Z,22.03
2022-08-25T01:32:12.244Z,21.81
2022-08-25T01:34:41.541Z,21.38
2022-08-25T01:37:13.413Z,21.32
2022-08-25T01:39:42.028Z,21.93
2022-08-25T01:42:46.684Z,22.54
2022-08-25T01:45:13.918Z,22.32
2022-08-25T01:47:40.794Z,22.11
2022-08-25T01:50:08.090Z,21.59
2022-08-25T01:52:43.939Z,21.52
2022-08-25T01:55:10.762Z,21.12
2022-08-25T01:57:38.111Z,21.57
2022-08-25T02:00:07.695Z,22.09
2022-08-25T02:02:38.189Z,21.05
2022-08-25T02:05:11.484Z,18.92
2022-08-25T02:07:38.425Z,20.94
2022-08-25T02:10:07.431Z,20.68
2022-08-25T02:12:35.336Z,21.58
2022-08-25T02:15:03.277Z,21.37
2022-08-25T02:17:30.142Z,21.86
2022-08-25T02:19:57.281Z,20.60
2022-08-25T02:22:24.458Z,20.27
2022-08-25T02:24:51.290Z,21.98
2022-08-25T02:27:18.052Z,21.52
2022-08-25T02:29:46.719Z,20.63
2022-08-25T02:32:13.697Z,20.79
2022-08-25T02:34:41.590Z,20.97
2022-08-25T02:37:08.686Z,20.51
2022-08-25T02:39:35.967Z,21.41
2022-08-25T02:42:03.359Z,21.50
2022-08-25T02:44:31.291Z,20.34
2022-08-25T02:46:58.491Z,19.96
2022-08-25T02:49:25.317Z,20.25
2022-08-25T02:51:52.319Z,19.34
2022-08-25T02:54:19.217Z,19.20
2022-08-25T02:56:46.250Z,20.92
2022-08-25T02:59:13.048Z,20.76
2022-08-25T03:01:39.870Z,20.56
2022-08-25T03:04:07.218Z,19.42
2022-08-25T03:06:34.207Z,19.16
2022-08-25T03:09:01.578Z,19.61
2022-08-25T03:11:28.958Z,19.75
2022-08-25T03:13:56.577Z,19.75
2022-08-25T03:16:23.863Z,18.11
2022-08-25T03:18:54.913Z,18.59
2022-08-25T03:21:21.761Z,19.20
2022-08-25T03:23:48.672Z,19.01
2022-08-25T03:26:33.969Z,18.85
2022-08-25T03:29:02.719Z,17.02
2022-08-25T03:31:29.616Z,19.20
2022-08-25T03:33:56.443Z,20.16
2022-08-25T03:36:23.591Z,18.52
2022-08-25T03:38:51.017Z,18.17
2022-08-25T03:41:23.984Z,17.26
2022-08-25T03:43:55.414Z,18.27
2022-08-25T03:46:28.137Z,18.08
2022-08-25T03:48:55.595Z,19.68
2022-08-25T03:51:35.238Z,19.91
2022-08-25T03:54:04.033Z,19.92
2022-08-25T03:56:31.651Z,19.41
2022-08-25T03:58:59.014Z,19.98
2022-08-25T04:01:27.211Z,19.71
2022-08-25T04:03:54.286Z,20.20
2022-08-25T04:06:21.459Z,19.44
2022-08-25T04:08:48.738Z,19.26
2022-08-25T04:11:18.369Z,18.16
2022-08-25T04:13:47.051Z,18.65
2022-08-25T04:16:23.014Z,18.86
2022-08-25T04:18:52.063Z,18.06
2022-08-25T04:21:20.417Z,18.52
2022-08-25T04:23:51.256Z,18.69
2022-08-25T04:26:19.790Z,17.37
2022-08-25T04:28:47.442Z,18.54
2022-08-25T04:31:17.056Z,18.46
2022-08-25T04:33:44.589Z,18.24
2022-08-25T04:36:12.486Z,17.71
2022-08-25T04:38:41.475Z,18.54
2022-08-25T04:41:09.265Z,19.21
2022-08-25T04:43:37.134Z,18.83
2022-08-25T04:46:11.312Z,18.63
2022-08-25T04:48:40.188Z,17.89
2022-08-25T04:51:09.709Z,18.61
2022-08-25T04:53:37.561Z,19.43
2022-08-25T04:56:10.439Z,19.10
2022-08-25T04:58:37.875Z,18.57
2022-08-25T05:01:10.641Z,18.92
2022-08-25T05:03:38.405Z,19.51
2022-08-25T05:06:05.750Z,18.83
2022-08-25T05:08:33.672Z,19.80
2022-08-25T05:11:06.573Z,18.82
2022-08-25T05:13:34.756Z,19.03
2022-08-25T05:16:02.887Z,18.65
2022-08-25T05:18:32.037Z,18.22
2022-08-25T05:21:05.190Z,17.69
2022-08-25T05:23:32.294Z,18.27
2022-08-25T05:26:06.671Z,18.83
2022-08-25T05:28:34.096Z,19.84
2022-08-25T05:31:04.505Z,19.30
2022-08-25T05:33:33.034Z,19.45
2022-08-25T05:36:00.199Z,18.87
2022-08-25T05:38:27.515Z,18.21
2022-08-25T05:41:03.023Z,17.32
2022-08-25T05:43:30.308Z,18.28
2022-08-25T05:45:58.406Z,20.62
2022-08-25T05:48:26.795Z,18.95
2022-08-25T05:50:59.354Z,18.93
2022-08-25T05:53:28.520Z,20.66
2022-08-25T05:55:59.437Z,21.73
2022-08-25T05:58:28.437Z,21.57
2022-08-25T06:00:56.371Z,21.47
2022-08-25T06:03:23.646Z,21.87
2022-08-25T06:05:50.572Z,21.56
2022-08-25T06:08:19.569Z,23.68
2022-08-25T06:10:52.332Z,23.13
2022-08-25T06:13:26.015Z,23.18
2022-08-25T06:16:00.540Z,23.43
2022-08-25T06:18:27.768Z,24.38
2022-08-25T06:20:54.674Z,22.28
2022-08-25T06:23:21.450Z,24.62
2022-08-25T06:25:53.549Z,25.07
2022-08-25T06:28:21.302Z,24.54
2022-08-25T06:30:48.406Z,22.82
2022-08-25T06:33:15.795Z,23.91
2022-08-25T06:35:43.505Z,23.91
2022-08-25T06:38:11.150Z,23.03
2022-08-25T06:40:38.834Z,23.92
2022-08-25T06:43:08.929Z,24.95
2022-08-25T06:45:35.897Z,25.73
2022-08-25T06:48:02.818Z,23.90
2022-08-25T06:50:30.107Z,24.10
2022-08-25T06:52:57.102Z,25.93
2022-08-25T06:55:23.986Z,26.17
2022-08-25T06:57:54.174Z,23.91
2022-08-25T07:00:22.975Z,25.58
2022-08-25T07:02:59.076Z,25.37
2022-08-25T07:05:33.498Z,25.93
2022-08-25T07:08:07.491Z,27.30
2022-08-25T07:10:34.299Z,26.27
2022-08-25T07:13:03.602Z,26.01
2022-08-25T07:15:30.420Z,28.42
2022-08-25T07:17:57.998Z,28.87
2022-08-25T07:22:57.040Z,27.84
2022-08-25T07:25:24.636Z,26.13
2022-08-25T07:27:54.805Z,26.46
2022-08-25T07:30:24.095Z,27.79
2022-08-25T07:32:51.359Z,26.30
2022-08-25T07:35:26.165Z,28.72
2022-08-25T07:37:59.412Z,29.22
2022-08-25T07:40:30.118Z,26.92
2022-08-25T07:43:00.198Z,29.05
2022-08-25T07:45:31.110Z,29.86
2022-08-25T07:48:00.055Z,27.28
2022-08-25T07:50:28.142Z,28.79
2022-08-25T07:52:56.214Z,28.20
2022-08-25T07:55:26.010Z,25.38
2022-08-25T07:57:57.198Z,28.92
2022-08-25T08:00:27.721Z,29.30
2022-08-25T08:02:55.093Z,26.65
2022-08-25T08:05:23.914Z,27.55
2022-08-25T08:07:52.423Z,29.12
2022-08-25T08:13:08.496Z,30.00
2022-08-25T08:15:37.169Z,29.72
2022-08-25T08:18:04.309Z,29.58
2022-08-25T08:20:42.745Z,29.44
2022-08-25T08:23:11.173Z,29.01
2022-08-25T08:25:38.082Z,29.57
2022-08-25T08:28:07.017Z,26.11
2022-08-25T08:30:36.612Z,29.91
2022-08-25T08:33:09.990Z,27.92
2022-08-25T08:35:38.402Z,28.94
2022-08-25T08:38:13.150Z,27.67
2022-08-25T08:41:30.545Z,29.63
2022-08-25T08:44:13.567Z,30.89
2022-08-25T08:46:49.523Z,29.28
2022-08-25T08:49:46.400Z,31.02
2022-08-25T08:52:18.481Z,29.13
2022-08-25T08:54:56.252Z,29.43
2022-08-25T08:57:27.053Z,32.85
2022-08-25T09:00:01.851Z,28.34
2022-08-25T09:02:52.079Z,30.72
2022-08-25T09:05:23.051Z,30.33
2022-08-25T09:07:58.075Z,31.47
2022-08-25T09:10:32.475Z,30.08
2022-08-25T09:13:32.187Z,29.20
2022-08-25T09:16:42.300Z,30.52
2022-08-25T09:19:12.790Z,31.52
2022-08-25T09:22:35.413Z,32.20
2022-08-25T09:25:48.593Z,31.71
2022-08-25T09:28:26.106Z,32.38
2022-08-25T09:31:35.912Z,31.22
2022-08-25T09:34:05.979Z,29.57
2022-08-25T09:36:37.417Z,33.19
2022-08-25T09:39:06.313Z,31.98
2022-08-25T09:41:56.230Z,33.47
2022-08-25T09:44:31.462Z,31.75
2022-08-25T09:47:08.436Z,29.58
2022-08-25T09:49:39.058Z,32.75
2022-08-25T09:52:35.162Z,31.99
2022-08-25T09:55:05.070Z,33.11
2022-08-25T09:57:43.855Z,31.15
2022-08-25T10:00:13.820Z,33.34
2022-08-25T10:02:42.729Z,30.59
2022-08-25T10:05:23.430Z,29.62
2022-08-25T10:08:01.721Z,27.56
2022-08-25T10:10:33.403Z,27.29
2022-08-25T10:13:03.626Z,30.89
2022-08-25T10:15:34.574Z,31.58
2022-08-25T10:18:28.318Z,31.56
2022-08-25T10:21:07.681Z,29.93
2022-08-25T10:23:37.385Z,30.48
2022-08-25T10:26:11.271Z,30.41
2022-08-25T10:28:52.797Z,33.39
2022-08-25T10:31:28.452Z,31.05
2022-08-25T10:34:08.377Z,32.78
2022-08-25T10:36:57.018Z,32.07
2022-08-25T10:39:54.915Z,33.03
2022-08-25T10:42:36.811Z,31.51
2022-08-25T10:45:34.298Z,30.54
2022-08-25T10:48:13.014Z,30.39
2022-08-25T10:50:53.699Z,32.24
2022-08-25T10:53:26.182Z,30.58
2022-08-25T10:56:16.742Z,29.43
2022-08-25T10:59:10.238Z,29.65
2022-08-25T11:01:58.673Z,30.26
2022-08-25T11:05:03.234Z,31.50
2022-08-25T11:07:37.147Z,33.73
2022-08-25T11:10:11.455Z,33.05
2022-08-25T11:12:53.671Z,31.52
2022-08-25T11:15:26.627Z,28.80
2022-08-25T11:18:02.909Z,33.98
2022-08-25T11:20:49.751Z,29.82
2022-08-25T11:23:34.161Z,34.31
2022-08-25T11:26:11.074Z,36.08
2022-08-25T11:29:02.630Z,34.05
2022-08-25T11:31:30.121Z,30.35
2022-08-25T11:33:58.841Z,31.94
2022-08-25T11:36:33.180Z,30.98
2022-08-25T11:39:28.053Z,32.05
2022-08-25T11:42:02.235Z,33.73
2022-08-25T11:44:55.267Z,31.32
2022-08-25T11:47:28.273Z,32.40
2022-08-25T11:50:03.009Z,33.02
2022-08-25T11:52:47.169Z,30.86
2022-08-25T11:55:14.086Z,29.77
2022-08-25T11:57:43.412Z,33.00
2022-08-25T12:00:39.008Z,29.18
2022-08-25T12:03:32.827Z,34.61
2022-08-25T12:06:25.002Z,34.20
2022-08-25T12:08:54.430Z,30.63
2022-08-25T12:11:46.555Z,30.93
2022-08-25T12:14:20.153Z,33.26
2022-08-25T12:16:56.456Z,33.90
2022-08-25T12:19:35.396Z,32.12
2022-08-25T12:22:03.367Z,33.26
2022-08-25T12:24:47.666Z,33.20
2022-08-25T12:27:27.439Z,31.90
2022-08-25T12:30:22.205Z,32.96
2022-08-25T12:33:31.938Z,33.17
2022-08-25T12:36:02.138Z,31.03
2022-08-25T12:39:01.163Z,31.78
2022-08-25T12:41:33.726Z,31.28
2022-08-25T12:44:32.767Z,30.10
2022-08-25T12:47:07.851Z,32.98
2022-08-25T12:49:35.850Z,34.42
2022-08-25T12:52:27.853Z,31.53
2022-08-25T12:54:59.543Z,33.99
2022-08-25T12:57:45.900Z,32.89
2022-08-25T13:00:18.949Z,32.95
2022-08-25T13:03:16.809Z,31.34
2022-08-25T13:06:17.056Z,31.01
2022-08-25T13:08:49.649Z,31.13
2022-08-25T13:11:38.812Z,30.11
2022-08-25T13:14:34.746Z,29.04
2022-08-25T13:17:05.439Z,33.88
2022-08-25T13:19:34.646Z,34.83
2022-08-25T13:22:15.573Z,31.43
2022-08-25T13:24:47.650Z,33.53
2022-08-25T13:27:24.837Z,34.20
2022-08-25T13:29:56.545Z,30.95
2022-08-25T13:32:34.366Z,31.54
2022-08-25T13:35:32.462Z,30.78
2022-08-25T13:38:18.645Z,33.28
2022-08-25T13:40:45.702Z,35.08
2022-08-25T13:43:15.103Z,34.00
2022-08-25T13:45:47.217Z,29.55
2022-08-25T13:48:31.066Z,33.86
2022-08-25T13:51:09.082Z,30.48
2022-08-25T13:53:38.937Z,33.66
2022-08-25T13:56:07.275Z,32.91
2022-08-25T13:58:45.154Z,34.52
2022-08-25T14:01:22.766Z,32.27
2022-08-25T14:04:33.750Z,32.73
2022-08-25T14:07:14.115Z,33.99
2022-08-25T14:09:53.140Z,33.87
2022-08-25T14:12:46.350Z,33.61
2022-08-25T14:15:20.164Z,33.52
2022-08-25T14:17:59.501Z,34.65
2022-08-25T14:20:29.751Z,35.97
2022-08-25T14:23:04.209Z,35.75
2022-08-25T14:25:35.344Z,35.01
2022-08-25T14:28:07.166Z,32.56
2022-08-25T14:30:39.305Z,33.51
2022-08-25T14:33:06.812Z,34.61
2022-08-25T14:35:34.578Z,32.78
2022-08-25T14:38:09.323Z,32.26
2022-08-25T14:40:36.799Z,35.13
2022-08-25T14:43:03.980Z,30.42
2022-08-25T14:45:32.416Z,31.53
2022-08-25T14:48:10.214Z,32.72
2022-08-25T14:50:41.916Z,34.25
2022-08-25T14:53:10.599Z,33.41
2022-08-25T14:55:38.047Z,31.74
2022-08-25T14:58:06.857Z,32.10
2022-08-25T15:00:37.503Z,33.67
2022-08-25T15:03:04.776Z,33.75
2022-08-25T15:05:31.978Z,32.83
2022-08-25T15:08:17.643Z,34.35
2022-08-25T15:10:44.547Z,34.09
2022-08-25T15:13:11.355Z,34.28
2022-08-25T15:15:58.126Z,33.77
2022-08-25T15:18:26.014Z,34.16
2022-08-25T15:20:52.939Z,35.67
2022-08-25T15:23:20.940Z,34.97
2022-08-25T15:25:52.755Z,32.98
2022-08-25T15:28:22.286Z,33.82
2022-08-25T15:30:50.323Z,35.59
2022-08-25T15:33:17.776Z,31.35
2022-08-25T15:35:45.664Z,31.71
2022-08-25T15:38:13.017Z,34.68
2022-08-25T15:40:40.024Z,35.34
2022-08-25T15:43:07.327Z,33.92
2022-08-25T15:45:36.346Z,34.52
2022-08-25T15:48:06.623Z,32.21
2022-08-25T15:50:34.487Z,31.29
2022-08-25T15:53:01.563Z,33.18
2022-08-25T15:55:28.721Z,31.02
2022-08-25T15:57:55.573Z,33.87
2022-08-25T16:00:23.184Z,31.68
2022-08-25T16:02:50.650Z,33.06
2022-08-25T16:05:22.490Z,31.68
2022-08-25T16:07:52.642Z,32.62
2022-08-25T16:10:19.778Z,32.41
2022-08-25T16:12:47.125Z,31.80
2022-08-25T16:15:14.024Z,32.06
2022-08-25T16:17:43.671Z,31.79
2022-08-25T16:20:13.722Z,30.12
2022-08-25T16:22:41.487Z,31.33
2022-08-25T16:25:08.896Z,32.48
2022-08-25T16:27:38.546Z,32.01
2022-08-25T16:30:11.744Z,31.96
2022-08-25T16:32:40.959Z,31.20
2022-08-25T16:35:10.969Z,29.49
2022-08-25T16:37:38.320Z,31.50
2022-08-25T16:40:08.456Z,32.10
2022-08-25T16:42:35.882Z,32.06
2022-08-25T16:45:03.003Z,32.87
2022-08-25T16:47:37.143Z,31.99
2022-08-25T16:50:10.825Z,32.66
2022-08-25T16:52:56.534Z,31.26
2022-08-25T16:55:25.817Z,31.99
2022-08-25T16:57:54.594Z,32.86
2022-08-25T17:00:25.255Z,32.38
2022-08-25T17:02:59.327Z,32.61
2022-08-25T17:05:28.210Z,32.47
2022-08-25T17:08:15.143Z,32.41
2022-08-25T17:10:43.485Z,32.39
2022-08-25T17:13:12.896Z,32.45
2022-08-25T17:15:43.192Z,32.30
2022-08-25T17:18:11.206Z,31.37
2022-08-25T17:20:42.110Z,32.40
2022-08-25T17:23:12.706Z,32.72
2022-08-25T17:25:41.512Z,32.24
2022-08-25T17:28:11.939Z,32.18
2022-08-25T17:30:39.359Z,32.10
2022-08-25T17:33:06.291Z,32.15
2022-08-25T17:35:39.255Z,32.31
2022-08-25T17:38:06.277Z,32.00
2022-08-25T17:40:34.026Z,31.92
2022-08-25T17:43:02.377Z,31.29
2022-08-25T17:45:29.266Z,31.84
2022-08-25T17:47:57.915Z,31.54
2022-08-25T17:50:25.795Z,31.38
2022-08-25T17:52:53.731Z,31.15
2022-08-25T17:55:22.952Z,31.49
2022-08-25T17:57:52.839Z,32.00
2022-08-25T18:00:22.489Z,31.27
2022-08-25T18:02:50.123Z,30.58
2022-08-25T18:05:18.188Z,30.21
2022-08-25T18:07:45.326Z,28.34
2022-08-25T18:10:12.443Z,28.92
2022-08-25T18:12:39.583Z,29.49
2022-08-25T18:15:08.161Z,27.90
2022-08-25T18:17:36.139Z,27.01
2022-08-25T18:20:06.698Z,28.34
2022-08-25T18:22:35.323Z,28.37
2022-08-25T18:25:06.827Z,29.06
2022-08-25T18:27:34.853Z,28.02
2022-08-25T18:30:02.475Z,29.37
2022-08-25T18:32:30.099Z,28.28
2022-08-25T18:34:57.491Z,29.41
2022-08-25T18:37:43.122Z,28.13
2022-08-25T18:40:23.639Z,30.02
2022-08-25T18:43:02.667Z,30.01
2022-08-25T18:45:38.474Z,29.97
2022-08-25T18:48:06.002Z,29.86
2022-08-25T18:50:36.979Z,29.78
2022-08-25T18:53:06.136Z,29.21
2022-08-25T18:55:33.866Z,31.20
2022-08-25T18:58:00.825Z,30.59
2022-08-25T19:00:30.211Z,29.61
2022-08-25T19:03:00.634Z,29.18
2022-08-25T19:05:34.327Z,28.81
2022-08-25T19:08:03.951Z,28.68
2022-08-25T19:10:32.603Z,29.46
2022-08-25T19:13:08.030Z,29.16
2022-08-25T19:15:37.807Z,28.66
2022-08-25T19:18:09.756Z,29.18
2022-08-25T19:20:37.610Z,29.00
2022-08-25T19:23:07.691Z,29.72
2022-08-25T19:25:35.197Z,29.59
2022-08-25T19:28:11.849Z,26.49
2022-08-25T19:30:43.676Z,28.78
2022-08-25T19:33:42.129Z,27.26
2022-08-25T19:36:06.405Z,27.58
2022-08-25T19:38:36.496Z,29.30
2022-08-25T19:41:09.038Z,28.71
2022-08-25T19:43:55.242Z,29.18
2022-08-25T19:46:32.613Z,29.80
2022-08-25T19:49:11.663Z,28.71
2022-08-25T19:51:44.362Z,28.37
2022-08-25T19:54:16.135Z,28.86
2022-08-25T19:56:54.720Z,29.00
2022-08-25T19:59:34.229Z,30.12
2022-08-25T20:02:09.428Z,29.65
2022-08-25T20:04:37.972Z,29.13
2022-08-25T20:07:07.865Z,29.57
2022-08-25T20:09:40.779Z,29.88
2022-08-25T20:12:11.213Z,27.98
2022-08-25T20:14:38.678Z,29.48
2022-08-25T20:17:13.653Z,30.22
2022-08-25T20:19:54.350Z,27.56
2022-08-25T20:22:26.361Z,29.78
2022-08-25T20:24:57.830Z,29.00
2022-08-25T20:27:31.189Z,29.08
2022-08-25T20:29:58.408Z,27.02
2022-08-25T20:32:25.813Z,28.26
2022-08-25T20:34:56.951Z,28.27
2022-08-25T20:37:25.965Z,28.45
2022-08-25T20:39:53.095Z,27.54
2022-08-25T20:42:20.562Z,29.24
2022-08-25T20:44:47.634Z,28.64
2022-08-25T20:47:15.344Z,28.85
2022-08-25T20:49:45.875Z,28.07
2022-08-25T20:52:14.261Z,28.54
2022-08-25T20:54:46.975Z,28.52
2022-08-25T20:57:17.814Z,28.78
2022-08-25T20:59:44.566Z,28.39
2022-08-25T21:02:14.039Z,27.86
2022-08-25T21:04:50.284Z,28.52
2022-08-25T21:07:18.794Z,28.48
2022-08-25T21:09:46.284Z,28.36
2022-08-25T21:12:13.591Z,29.00
2022-08-25T21:14:42.163Z,28.85
2022-08-25T21:17:12.676Z,27.85
2022-08-25T21:19:41.691Z,27.73
2022-08-25T21:22:11.345Z,28.11
2022-08-25T21:24:39.098Z,28.39
2022-08-25T21:27:06.406Z,27.26
2022-08-25T21:29:33.665Z,27.84
2022-08-25T21:32:00.768Z,28.35
2022-08-25T21:34:29.218Z,28.17
2022-08-25T21:36:58.315Z,27.44
2022-08-25T21:39:28.280Z,28.67
2022-08-25T21:41:56.702Z,27.87
2022-08-25T21:44:23.902Z,28.74
2022-08-25T21:46:54.107Z,28.72
2022-08-25T21:49:23.322Z,28.14
2022-08-25T21:52:00.775Z,28.02
2022-08-25T21:54:29.078Z,27.55
2022-08-25T21:57:01.792Z,27.20
2022-08-25T21:59:31.988Z,28.46
2022-08-25T22:02:01.704Z,28.32
2022-08-25T22:04:30.342Z,28.30
2022-08-25T22:06:58.461Z,28.24
2022-08-25T22:09:26.690Z,28.60
2022-08-25T22:11:56.526Z,28.55
2022-08-25T22:14:26.192Z,27.87
2022-08-25T22:16:54.725Z,27.76
2022-08-25T22:19:22.775Z,27.91
2022-08-25T22:21:51.098Z,28.09
2022-08-25T22:24:19.187Z,28.01
2022-08-25T22:26:47.599Z,28.48
2022-08-25T22:29:25.475Z,26.79
2022-08-25T22:31:53.986Z,26.97
2022-08-25T22:34:30.208Z,27.82
2022-08-25T22:37:00.088Z,26.82
2022-08-25T22:39:28.405Z,27.81
2022-08-25T22:41:55.561Z,28.39
2022-08-25T22:44:23.240Z,27.82
2022-08-25T22:46:50.066Z,27.34
2022-08-25T22:49:16.898Z,26.67
2022-08-25T22:51:44.562Z,26.80
2022-08-25T22:54:15.131Z,28.25
2022-08-25T22:56:42.952Z,27.17
2022-08-25T22:59:13.089Z,27.56
2022-08-25T23:01:41.097Z,27.85
2022-08-25T23:04:08.594Z,28.13
2022-08-25T23:06:38.260Z,27.42
2022-08-25T23:09:06.522Z,28.10
2022-08-25T23:11:33.342Z,26.68
2022-08-25T23:14:00.587Z,27.92
2022-08-25T23:16:28.506Z,27.80
2022-08-25T23:18:55.677Z,27.46
2022-08-25T23:21:42.434Z,24.28
2022-08-25T23:24:11.112Z,27.76
2022-08-25T23:26:42.730Z,28.23
2022-08-25T23:29:18.764Z,27.67
2022-08-25T23:31:47.948Z,27.94
2022-08-25T23:34:16.675Z,27.91
2022-08-25T23:36:44.548Z,27.53
2022-08-25T23:39:11.571Z,26.81
2022-08-25T23:41:39.414Z,25.05
2022-08-25T23:44:06.571Z,25.48
2022-08-25T23:46:36.487Z,26.70
2022-08-25T23:49:05.672Z,26.14
2022-08-25T23:51:37.227Z,26.15
2022-08-25T23:54:09.553Z,27.26
2022-08-25T23:56:44.805Z,27.47
2022-08-25T23:59:24.447Z,26.81
